EDT,Max TemperatureF,Mean TemperatureF,Min TemperatureF,Max Dew PointF,MeanDew PointF,Min DewpointF,Max Humidity, Mean Humidity, Min Humidity, Max Sea Level PressureIn, Mean Sea Level PressureIn, Min Sea Level PressureIn, Max VisibilityMiles, Mean VisibilityMiles, Min VisibilityMiles, Max Wind SpeedMPH, Mean Wind SpeedMPH, Max Gust SpeedMPH,PrecipitationIn, CloudCover, Events, WindDirDegrees
2011-10-1,64,56,48,46,40,34,77,56,34,29.89,29.84,29.79,10,10,10,12,2,21,0.00,2,,314
2011-10-2,62,54,46,43,37,30,82,59,32,30.00,29.96,29.92,10,10,10,13,2,24,0.00,4,,306
2011-10-3,68,57,46,45,40,37,93,61,35,30.10,30.06,30.01,10,10,10,7,0,,0.00,4,,330
2011-10-4,71,58,46,46,44,43,93,67,38,30.26,30.20,30.15,10,10,10,8,0,,0.00,0,,338
2011-10-5,77,60,44,54,47,39,100,71,27,30.29,30.25,30.19,10,7,1,0,0,,0.00,0,,-1
2011-10-6,73,58,44,55,48,45,100,75,38,30.38,30.33,30.27,10,8,2,9,2,,0.00,0,,48
2011-10-7,73,58,42,54,47,43,100,70,33,30.47,30.43,30.38,10,8,1,8,1,,0.00,0,,75
2011-10-8,73,58,42,54,45,37,100,70,27,30.53,30.48,30.44,10,8,2,12,2,,0.00,0,,60
2011-10-9,75,60,46,57,49,43,100,74,31,30.48,30.43,30.35,10,8,0,10,2,,0.00,1,,52
2011-10-10,75,63,51,54,52,48,100,74,38,30.34,30.27,30.17,10,9,3,12,2,,0.00,0,,59
2011-10-11,68,64,60,61,57,52,94,79,56,30.14,30.09,30.01,10,10,4,15,3,18,0.00,7,,54
2011-10-12,71,68,64,70,66,63,100,95,88,29.96,29.87,29.80,10,6,1,10,5,,0.07,8,,101
2011-10-13,78,74,69,72,67,61,100,85,54,29.79,29.71,29.61,10,5,0,15,3,24,0.00,7,,192
2011-10-14,73,66,60,63,53,36,100,69,25,29.69,29.63,29.58,10,10,7,16,7,29,0.03,5,,248
2011-10-15,73,58,44,48,39,27,100,63,19,29.96,29.91,29.86,10,10,5,15,2,23,0.00,0,,273
2011-10-16,78,60,41,43,36,28,93,47,17,30.15,30.08,29.97,10,10,10,15,3,18,0.00,0,,242
2011-10-17,86,74,62,55,46,45,64,41,23,29.93,29.89,29.83,10,10,10,16,10,22,0.00,0,,233
2011-10-18,84,68,53,55,52,46,100,62,27,29.88,29.83,29.76,10,10,5,12,2,,0.00,0,,209
2011-10-19,66,63,60,64,61,57,100,92,82,29.73,29.50,29.33,10,7,1,15,6,21,0.38,8,,76
2011-10-20,60,52,44,48,42,36,93,67,39,29.78,29.65,29.46,10,10,10,18,12,28,0.00,4,,233
2011-10-21,66,52,39,45,40,37,100,68,35,30.08,30.02,29.94,10,9,3,8,2,,0.00,0,,270
2011-10-22,64,52,41,45,41,37,100,68,37,30.18,30.13,30.08,10,10,5,6,1,,0.00,2,,31
2011-10-23,68,52,37,50,41,37,100,76,37,30.18,30.13,30.09,10,8,2,5,0,,0.00,0,,140
2011-10-24,71,55,39,50,44,39,100,75,38,30.15,30.10,30.03,10,7,1,7,1,,0.00,,,243
2011-10-25,71,55,39,50,41,30,100,69,23,30.28,30.21,30.13,10,9,0,5,0,,0.00,,,319
2011-10-26,75,58,42,50,45,39,100,69,34,30.16,30.06,29.93,10,10,5,15,3,22,0.00,,,231
2011-10-27,78,64,51,50,47,45,88,58,32,29.90,29.83,29.73,10,10,10,15,5,22,0.00,,,230
2011-10-28,62,52,42,43,38,34,87,65,45,30.19,30.11,29.96,10,9,2,16,9,20,0.01,,,38
2011-10-29,55,47,39,41,38,30,100,82,41,30.05,29.96,29.92,10,8,2,14,6,25,0.38,,,346
2011-10-30,57,42,28,37,30,25,100,71,31,30.33,30.24,30.13,10,10,5,8,1,,0.00,,,60
2011-10-31,55,42,30,39,32,28,100,74,36,30.36,30.31,30.22,10,9,1,7,0,,0.00,,,127